Flight Track Log - Related Links

Times and Time Zones

All times are in EDT time to prevent confusion due to time zone crossing. See the UCA4838 flight status page for this flight to view local times or setup timezone preferences in your user account.

Time Position Orientation Groundspeed Altitude Reporting Facility
EDT Latitude Longitude Course Direction KTS MPH feet Rate Location/Type
Fri 10:22:00 AM 41.0857 -74.1004 North  Level Estimated
Fri 10:23:00 AM 41.1348 -74.0918 North  Level Estimated
Fri 10:24:00 AM 41.1840 -74.0832 North  Level Estimated
Fri 10:25:00 AM 41.2331 -74.0745 North  Level Estimated
Fri 10:26:00 AM 41.2822 -74.0659 North  Level Estimated
Fri 10:27:00 AM 41.3314 -74.0573 North  Level Estimated
Fri 10:28:00 AM 41.3805 -74.0486 North  Level Estimated
Fri 10:29:00 AM 41.4297 -74.0399 North  Level Estimated
Fri 10:30:00 AM 41.4788 -74.0312 North  Level Estimated
Fri 10:31:00 AM 41.5279 -74.0226 North  Level Estimated
Fri 10:32:00 AM 41.5771 -74.0138 North  Level Estimated
Fri 10:33:00 AM 41.6262 -74.0051 North  Level Estimated
Fri 10:34:00 AM 41.6754 -73.9964 North  Level Estimated
Fri 10:35:00 AM 41.7245 -73.9876 North  Level Estimated
Fri 10:36:00 AM 41.7736 -73.9789 North  Level Estimated
Fri 10:37:00 AM 41.8228 -73.9701 North  Level Estimated
Fri 10:38:00 AM 41.8719 -73.9613 North  Level Estimated
Fri 10:39:00 AM 41.9210 -73.9525 North  Level Estimated
Fri 10:40:00 AM 41.9702 -73.9436 North  Level Estimated
Fri 10:41:00 AM 42.0193 -73.9348 North  Level Estimated
Fri 10:42:00 AM 42.0684 -73.9260 North  Level Estimated
Fri 10:43:00 AM 42.1176 -73.9171 North  Level Estimated
Fri 10:44:00 AM 42.1667 -73.9082 North  Level Estimated
Fri 10:45:00 AM 42.2158 -73.8994 North  Level Estimated
Fri 10:46:00 AM 42.2649 -73.8904 North  Level Estimated
Fri 10:47:00 AM 42.3141 -73.8815 North  Level Estimated
Fri 10:48:00 AM 42.3632 -73.8726 North  Level Estimated
Fri 10:49:00 AM 42.4123 -73.8637 North  Level Estimated
Fri 10:50:00 AM 42.4615 -73.8547 North  Level Estimated
Fri 10:51:00 AM 42.5106 -73.8457 North  Level Estimated
Fri 10:52:00 AM 42.5597 -73.8367 North  Level Estimated
Fri 10:53:00 AM 42.6088 -73.8278 North  Level Estimated
Fri 10:54:00 AM 42.6580 -73.8187 North  Level Estimated
Fri 10:55:00 AM 42.7071 -73.8097 North  Level Estimated
Fri 10:56:00 AM 42.7491 -73.8020 North  Level Estimated
Fri 10:57:00 AM 42.7491 -73.8020 304° West  Level Estimated
Fri 10:58:00 AM 42.7491 -73.8020 304° West  Level Estimated
Fri 10:59:00 AM 42.7491 -73.8020 304° West  Level Estimated
Fri 11:00:00 AM 42.7491 -73.8020 304° West  Level Estimated
Fri 11:01:00 AM 42.7491 -73.8020 304° West  Level Estimated
Fri 11:02:00 AM 42.7491 -73.8020 304° West  Level Estimated
Fri 11:03:00 AM 42.7491 -73.8020 304° West  Level Estimated
Fri 11:04:00 AM 42.7491 -73.8020 304° West  Level Estimated
Fri 11:05:00 AM 42.7491 -73.8020 304° West  Level Estimated
Fri 11:06:00 AM 42.7491 -73.8020 304° West  Level Estimated
Fri 11:07:00 AM 42.7491 -73.8020 304° West  Level Estimated
Fri 11:08:00 AM 42.7491 -73.8020 304° West  Level Estimated
Fri 11:09:00 AM 42.7491 -73.8020 304° West  Level Estimated
Fri 11:10:00 AM 42.7491 -73.8020 304° West  Level Estimated
Fri 11:11:00 AM 42.7491 -73.8020 304° West  Level Estimated
Fri 11:12:00 AM 42.7491 -73.8020 304° West  Level Estimated

Login

Don't have an account? Register now (free) for customized features, flight alerts, and more!